Time;durP1;ratioP1;P1;durP2;ratioP2;P2;SDS_P1;SDS_P2;PMS_P1;PMS_P2;Temp;Humidity;BMP_temperature;BMP_pressure;BME280_temperature;BME280_humidity;BME280_pressure;Samples;Min_cycle;Max_cycle;Signal;HPM_P1;HPM_P2
2021/10/21 00:00:09;;;;;;;7.05;4.22;;;18.40;94.90;;;;;;5081000;28;20147;-67
2021/10/21 00:02:36;;;;;;;5.22;3.72;;;18.30;94.90;;;;;;5073087;28;20102;-67
2021/10/21 00:05:01;;;;;;;8.57;3.95;;;18.30;94.90;;;;;;5087927;28;20083;-66
2021/10/21 00:07:26;;;;;;;5.03;3.58;;;18.30;94.90;;;;;;5093370;28;20559;-66
2021/10/21 00:09:52;;;;;;;5.57;4.15;;;18.30;94.90;;;;;;5081325;28;20020;-66
2021/10/21 00:12:18;;;;;;;4.75;3.40;;;18.30;94.90;;;;;;5085779;28;20395;-67
2021/10/21 00:14:43;;;;;;;5.90;3.78;;;18.30;94.90;;;;;;5084132;28;20040;-67
2021/10/21 00:17:09;;;;;;;6.68;3.60;;;18.30;95.00;;;;;;5072392;28;20029;-66
2021/10/21 00:19:34;;;;;;;5.60;3.53;;;18.30;95.00;;;;;;5078319;28;20024;-67
2021/10/21 00:22:00;;;;;;;6.05;3.85;;;18.30;95.00;;;;;;5091903;28;20024;-67
2021/10/21 00:24:25;;;;;;;6.80;3.97;;;18.30;95.00;;;;;;5091181;28;20112;-66
2021/10/21 00:26:51;;;;;;;6.15;4.15;;;18.20;95.00;;;;;;5084772;28;20028;-67
2021/10/21 00:29:16;;;;;;;4.65;3.50;;;18.20;95.00;;;;;;5085631;28;20024;-67
2021/10/21 00:31:42;;;;;;;5.95;4.00;;;18.30;95.10;;;;;;5083942;28;20023;-67
2021/10/21 00:34:07;;;;;;;5.10;3.85;;;18.20;95.10;;;;;;5072937;28;20033;-66
2021/10/21 00:36:33;;;;;;;4.63;3.72;;;18.20;95.10;;;;;;5071304;28;20020;-66
2021/10/21 00:38:59;;;;;;;5.82;3.88;;;18.10;95.10;;;;;;5072466;28;20021;-66
2021/10/21 00:41:24;;;;;;;4.90;3.83;;;18.10;95.10;;;;;;5072391;28;20041;-66
2021/10/21 00:43:50;;;;;;;5.07;4.07;;;18.20;95.20;;;;;;5078735;28;20495;-66
2021/10/21 00:46:16;;;;;;;5.22;3.65;;;18.10;95.20;;;;;;5074048;28;20020;-67
2021/10/21 00:48:42;;;;;;;6.85;3.50;;;18.20;95.20;;;;;;5091097;28;20384;-67
2021/10/21 00:51:12;;;;;;;5.20;3.85;;;18.10;95.20;;;;;;5089672;28;20073;-67
2021/10/21 00:53:38;;;;;;;4.40;3.65;;;18.10;95.30;;;;;;5071679;28;20105;-67
2021/10/21 00:56:07;;;;;;;4.30;3.30;;;18.10;95.30;;;;;;5090419;28;20028;-67
2021/10/21 00:58:34;;;;;;;4.97;4.13;;;18.10;95.30;;;;;;5091168;28;20368;-67
2021/10/21 01:01:00;;;;;;;5.95;4.03;;;18.10;95.30;;;;;;5071805;28;20557;-67
2021/10/21 01:03:26;;;;;;;7.90;4.18;;;18.10;95.40;;;;;;5071632;28;20032;-67
2021/10/21 01:05:51;;;;;;;7.03;4.30;;;18.10;95.40;;;;;;5072072;28;20017;-67
2021/10/21 01:08:17;;;;;;;4.93;3.92;;;18.00;95.40;;;;;;5072516;28;20032;-66
2021/10/21 01:10:44;;;;;;;5.78;4.25;;;18.10;95.40;;;;;;5071674;28;20032;-66
2021/10/21 01:13:09;;;;;;;5.28;3.65;;;18.10;95.50;;;;;;5071953;28;20566;-67
2021/10/21 01:15:35;;;;;;;5.93;3.78;;;18.00;95.50;;;;;;5078011;28;20024;-67
2021/10/21 01:18:02;;;;;;;4.47;3.55;;;18.00;95.50;;;;;;5092394;28;20497;-67
2021/10/21 01:20:27;;;;;;;4.75;3.40;;;18.00;95.50;;;;;;5088299;28;20059;-66
2021/10/21 01:22:53;;;;;;;6.45;3.45;;;18.00;95.60;;;;;;5092011;28;20074;-66
2021/10/21 01:25:19;;;;;;;4.88;3.60;;;18.00;95.60;;;;;;5086941;28;20028;-66
2021/10/21 01:27:46;;;;;;;4.38;3.45;;;18.00;95.60;;;;;;5090530;28;20032;-67
2021/10/21 01:30:23;;;;;;;4.38;3.28;;;18.00;95.70;;;;;;5078887;28;20031;-67
2021/10/21 01:32:50;;;;;;;5.95;3.75;;;18.00;95.70;;;;;;5087880;28;20059;-66
2021/10/21 01:35:15;;;;;;;4.90;3.85;;;18.00;95.80;;;;;;5082700;28;20069;-66
2021/10/21 01:37:41;;;;;;;7.05;4.72;;;18.00;95.80;;;;;;5071495;28;20029;-66
2021/10/21 01:40:10;;;;;;;6.35;3.78;;;18.00;95.80;;;;;;5073943;28;20038;-65
2021/10/21 01:42:37;;;;;;;5.60;3.72;;;18.00;95.90;;;;;;5078646;28;20060;-66
2021/10/21 01:45:12;;;;;;;5.00;3.90;;;18.00;95.90;;;;;;5070938;28;20024;-65
2021/10/21 01:47:38;;;;;;;5.50;3.30;;;18.00;95.90;;;;;;5077545;28;20119;-66
2021/10/21 01:50:04;;;;;;;5.75;3.88;;;18.00;95.90;;;;;;5087472;28;20096;-66
2021/10/21 01:52:29;;;;;;;5.35;3.40;;;18.00;95.90;;;;;;5071168;28;20028;-65
2021/10/21 01:54:55;;;;;;;5.78;4.07;;;18.00;95.90;;;;;;5072285;28;20040;-65
2021/10/21 01:57:20;;;;;;;4.78;3.47;;;17.90;95.90;;;;;;5085525;28;20111;-65
2021/10/21 01:59:46;;;;;;;4.63;3.40;;;17.90;95.90;;;;;;5070684;28;20028;-65
2021/10/21 02:02:11;;;;;;;5.28;3.53;;;17.90;95.90;;;;;;5085377;28;20443;-66
2021/10/21 02:04:37;;;;;;;6.82;3.53;;;17.90;95.90;;;;;;5073749;28;20048;-66
2021/10/21 02:07:02;;;;;;;3.67;2.85;;;17.90;95.90;;;;;;5083757;28;20476;-65
2021/10/21 02:09:28;;;;;;;9.25;3.65;;;17.90;95.80;;;;;;5071326;28;20052;-65
2021/10/21 02:11:53;;;;;;;6.75;3.08;;;17.90;95.80;;;;;;5085394;28;20537;-65
2021/10/21 02:14:19;;;;;;;3.95;2.67;;;18.00;95.80;;;;;;5091680;28;20035;-65
2021/10/21 02:16:44;;;;;;;6.40;3.35;;;17.90;95.70;;;;;;5080259;28;20826;-66
2021/10/21 02:19:10;;;;;;;3.72;2.60;;;17.90;95.70;;;;;;5084517;28;20137;-66
2021/10/21 02:21:35;;;;;;;5.18;2.90;;;17.90;95.60;;;;;;5093566;28;20024;-66
2021/10/21 02:24:01;;;;;;;3.90;2.63;;;18.00;95.60;;;;;;5094770;28;20032;-65
2021/10/21 02:26:26;;;;;;;6.13;2.92;;;18.00;95.50;;;;;;5076777;28;20074;-65
2021/10/21 02:28:51;;;;;;;3.33;2.40;;;18.00;95.50;;;;;;5075131;28;20503;-65
2021/10/21 02:31:17;;;;;;;3.58;2.50;;;18.00;95.30;;;;;;5074239;28;20115;-65
2021/10/21 02:33:42;;;;;;;4.47;2.53;;;18.00;95.30;;;;;;5074321;28;20539;-65
2021/10/21 02:36:08;;;;;;;5.60;2.33;;;18.00;95.20;;;;;;5081007;28;20025;-65
2021/10/21 02:38:34;;;;;;;3.10;2.13;;;18.00;95.20;;;;;;5115435;28;20467;-66
2021/10/21 02:40:59;;;;;;;3.60;2.33;;;18.00;95.10;;;;;;5089531;28;20025;-65
2021/10/21 02:43:25;;;;;;;5.18;2.33;;;18.00;95.10;;;;;;5074855;28;20021;-65
2021/10/21 02:45:51;;;;;;;3.50;2.00;;;18.00;95.00;;;;;;5081186;28;20028;-65
2021/10/21 02:48:16;;;;;;;4.18;2.50;;;18.00;95.00;;;;;;5095055;28;20031;-65
2021/10/21 02:50:42;;;;;;;4.32;2.22;;;18.00;95.20;;;;;;5088505;28;20183;-65
2021/10/21 02:53:07;;;;;;;2.75;2.10;;;18.00;94.90;;;;;;5074878;28;20097;-64
2021/10/21 02:55:32;;;;;;;2.83;2.05;;;18.00;94.90;;;;;;5081219;28;20035;-65
2021/10/21 02:57:58;;;;;;;2.83;2.03;;;17.90;94.90;;;;;;5094581;28;20023;-65
2021/10/21 03:00:23;;;;;;;2.78;2.28;;;17.90;94.90;;;;;;5077469;28;20017;-65
2021/10/21 03:02:49;;;;;;;2.65;1.98;;;17.90;95.00;;;;;;5094708;28;20379;-65
2021/10/21 03:05:15;;;;;;;3.25;2.10;;;17.90;95.00;;;;;;5090694;28;20028;-64
2021/10/21 03:07:40;;;;;;;3.50;2.42;;;17.90;95.00;;;;;;5089653;28;20377;-64
2021/10/21 03:10:07;;;;;;;4.65;2.90;;;17.90;95.10;;;;;;5092930;28;20042;-65
2021/10/21 03:12:32;;;;;;;4.28;2.33;;;18.00;95.10;;;;;;5086752;28;20029;-65
2021/10/21 03:14:58;;;;;;;3.15;2.25;;;18.00;95.20;;;;;;5072172;28;20036;-65
2021/10/21 03:17:24;;;;;;;3.03;2.20;;;18.00;95.20;;;;;;5088133;28;20050;-65
2021/10/21 03:19:49;;;;;;;5.75;2.33;;;17.90;95.20;;;;;;5073988;28;20431;-65
2021/10/21 03:22:15;;;;;;;4.65;2.25;;;17.90;95.20;;;;;;5078051;28;20107;-65
2021/10/21 03:24:41;;;;;;;2.75;1.92;;;17.90;95.30;;;;;;5076972;28;20060;-65
2021/10/21 03:27:06;;;;;;;3.30;2.35;;;17.90;95.30;;;;;;5075461;28;20514;-65
2021/10/21 03:29:32;;;;;;;6.03;2.33;;;17.90;95.30;;;;;;5086635;28;20066;-65
2021/10/21 03:31:57;;;;;;;2.83;2.10;;;17.90;95.30;;;;;;5087276;28;20028;-65
2021/10/21 03:34:23;;;;;;;3.47;2.10;;;17.90;95.40;;;;;;5077436;28;20520;-65
2021/10/21 03:36:48;;;;;;;2.50;2.00;;;17.90;95.40;;;;;;5077070;28;20033;-65
2021/10/21 03:39:14;;;;;;;3.47;2.10;;;17.90;95.40;;;;;;5074792;28;20047;-65
2021/10/21 03:41:40;;;;;;;4.80;2.30;;;17.90;95.40;;;;;;5073967;28;20027;-65
2021/10/21 03:44:06;;;;;;;3.40;1.95;;;17.90;95.40;;;;;;5073934;28;20028;-65
2021/10/21 03:46:31;;;;;;;3.60;2.15;;;17.90;95.40;;;;;;5073282;28;20104;-65
2021/10/21 03:48:57;;;;;;;2.88;2.20;;;17.90;95.30;;;;;;5073811;28;20158;-65
2021/10/21 03:51:22;;;;;;;2.45;2.13;;;17.90;95.30;;;;;;5073545;28;20025;-65
2021/10/21 03:53:48;;;;;;;3.75;1.95;;;17.90;95.30;;;;;;5074458;28;20047;-65
2021/10/21 03:56:13;;;;;;;2.78;1.63;;;17.90;95.20;;;;;;5074832;28;20472;-65
2021/10/21 03:58:38;;;;;;;3.47;2.10;;;17.90;95.20;;;;;;5074134;28;20028;-65
2021/10/21 04:01:04;;;;;;;3.63;1.80;;;17.90;95.10;;;;;;5073767;28;20473;-65
2021/10/21 04:03:30;;;;;;;3.92;1.98;;;17.90;95.00;;;;;;5074610;28;20020;-65
2021/10/21 04:05:55;;;;;;;2.33;1.70;;;17.90;94.80;;;;;;5090773;28;20032;-65
2021/10/21 04:08:21;;;;;;;2.50;1.55;;;17.90;94.70;;;;;;5093719;28;20027;-66
2021/10/21 04:10:47;;;;;;;2.47;1.77;;;17.90;94.50;;;;;;5082723;28;20059;-66
2021/10/21 04:13:12;;;;;;;2.53;1.80;;;17.90;94.40;;;;;;5082027;28;20025;-66
2021/10/21 04:15:39;;;;;;;3.03;1.65;;;17.90;94.10;;;;;;5073278;28;20028;-65
2021/10/21 04:18:05;;;;;;;4.18;1.60;;;17.90;94.00;;;;;;5072910;28;20025;-66
2021/10/21 04:20:30;;;;;;;2.53;1.83;;;17.90;93.90;;;;;;5075640;28;20032;-65
2021/10/21 04:22:56;;;;;;;2.00;1.48;;;17.90;94.00;;;;;;5081625;28;20033;-66
2021/10/21 04:25:22;;;;;;;4.18;1.58;;;17.90;94.00;;;;;;5071930;28;20484;-66
2021/10/21 04:27:48;;;;;;;2.25;1.75;;;17.90;94.30;;;;;;5074794;28;20078;-66
2021/10/21 04:30:13;;;;;;;2.25;1.55;;;17.80;94.60;;;;;;5069209;28;20028;-65
2021/10/21 04:32:39;;;;;;;2.15;1.30;;;17.80;94.70;;;;;;5069135;28;20020;-66
2021/10/21 04:35:05;;;;;;;3.08;1.70;;;17.80;94.80;;;;;;5071958;28;20042;-66
2021/10/21 04:37:30;;;;;;;2.17;1.45;;;17.70;95.00;;;;;;5071814;28;20028;-66
2021/10/21 04:39:56;;;;;;;4.18;1.42;;;17.60;95.10;;;;;;5072250;28;20061;-66
2021/10/21 04:42:21;;;;;;;2.75;1.38;;;17.50;95.20;;;;;;5087373;28;20027;-66
2021/10/21 04:44:47;;;;;;;2.47;1.58;;;17.50;95.30;;;;;;5086432;28;20028;-66
2021/10/21 04:47:13;;;;;;;2.70;1.42;;;17.40;95.40;;;;;;5069712;28;20753;-66
2021/10/21 04:49:38;;;;;;;4.00;1.70;;;17.40;95.60;;;;;;5081298;28;20111;-65
2021/10/21 04:52:04;;;;;;;4.22;1.50;;;17.30;95.70;;;;;;5085694;28;20657;-66
2021/10/21 04:54:30;;;;;;;2.03;1.40;;;17.20;95.80;;;;;;5071299;28;20546;-65
2021/10/21 04:56:55;;;;;;;2.08;1.20;;;17.10;95.90;;;;;;5072034;28;20094;-65
2021/10/21 04:59:20;;;;;;;3.17;1.48;;;17.10;96.00;;;;;;5083098;28;20034;-65
2021/10/21 05:01:46;;;;;;;3.13;1.35;;;17.00;96.10;;;;;;5076562;28;20024;-65
2021/10/21 05:04:12;;;;;;;2.95;1.25;;;17.00;96.10;;;;;;5083531;28;20036;-65
2021/10/21 05:06:37;;;;;;;1.65;1.27;;;17.00;96.20;;;;;;5077970;28;20036;-65
2021/10/21 05:09:03;;;;;;;2.38;1.60;;;16.90;96.20;;;;;;5071968;28;20064;-65
2021/10/21 05:11:28;;;;;;;4.20;1.60;;;16.90;96.40;;;;;;5083917;28;20020;-65
2021/10/21 05:13:54;;;;;;;6.22;2.50;;;16.80;96.50;;;;;;5089420;28;20114;-65
2021/10/21 05:16:19;;;;;;;5.10;1.52;;;16.80;96.60;;;;;;5078839;28;20667;-65
2021/10/21 05:18:45;;;;;;;1.98;1.48;;;16.70;96.60;;;;;;5070092;28;20033;-65
2021/10/21 05:21:10;;;;;;;2.67;1.65;;;16.60;96.60;;;;;;5071058;28;20024;-65
2021/10/21 05:23:36;;;;;;;3.67;1.50;;;16.60;96.80;;;;;;5071485;28;20060;-65
2021/10/21 05:26:02;;;;;;;2.53;1.25;;;16.60;96.90;;;;;;5071842;28;20502;-65
2021/10/21 05:28:27;;;;;;;2.72;1.58;;;16.60;96.90;;;;;;5071694;28;20047;-65
2021/10/21 05:30:53;;;;;;;1.92;1.40;;;16.60;97.00;;;;;;5073319;28;20056;-65
2021/10/21 05:33:23;;;;;;;3.60;1.50;;;16.50;97.00;;;;;;5090554;28;20040;-64
2021/10/21 05:35:49;;;;;;;2.40;1.38;;;16.50;97.00;;;;;;5089036;28;20043;-64
2021/10/21 05:38:14;;;;;;;2.20;1.40;;;16.50;97.10;;;;;;5091429;28;20024;-64
2021/10/21 05:40:39;;;;;;;3.25;1.70;;;16.50;97.00;;;;;;5089691;28;20069;-64
2021/10/21 05:43:05;;;;;;;2.30;1.52;;;16.50;97.10;;;;;;5086930;28;20077;-65
2021/10/21 05:45:30;;;;;;;3.42;1.38;;;16.50;97.10;;;;;;5086279;28;20496;-65
2021/10/21 05:47:56;;;;;;;2.90;1.50;;;16.50;97.10;;;;;;5082220;28;20032;-65
2021/10/21 05:50:21;;;;;;;2.08;1.30;;;16.50;97.20;;;;;;5073932;28;20028;-65
2021/10/21 05:52:47;;;;;;;2.03;1.38;;;16.60;97.20;;;;;;5080396;28;20040;-65
2021/10/21 05:55:13;;;;;;;2.67;1.60;;;16.60;97.20;;;;;;5070792;28;20051;-64
2021/10/21 05:57:38;;;;;;;1.90;1.20;;;16.60;97.20;;;;;;5071046;28;20055;-64
2021/10/21 06:00:05;;;;;;;1.63;1.13;;;16.60;97.20;;;;;;5082987;28;20024;-65
2021/10/21 06:02:30;;;;;;;2.72;1.48;;;16.60;97.20;;;;;;5076774;28;20505;-63
2021/10/21 06:04:56;;;;;;;1.85;1.25;;;16.70;97.10;;;;;;5089118;28;20029;-63
2021/10/21 06:07:21;;;;;;;2.25;1.30;;;16.70;96.90;;;;;;5070769;28;20036;-63
2021/10/21 06:09:48;;;;;;;4.88;1.30;;;16.70;96.80;;;;;;5070860;28;20112;-63
2021/10/21 06:12:13;;;;;;;3.38;1.50;;;16.80;96.80;;;;;;5073865;28;20051;-64
2021/10/21 06:14:39;;;;;;;1.88;1.13;;;16.80;96.70;;;;;;5090932;28;20025;-64
2021/10/21 06:17:04;;;;;;;3.60;1.50;;;16.80;96.60;;;;;;5087636;28;20024;-63
2021/10/21 06:19:30;;;;;;;3.72;1.35;;;16.90;96.50;;;;;;5082321;28;20074;-64
2021/10/21 06:22:00;;;;;;;2.92;1.25;;;16.90;96.40;;;;;;5082925;28;20118;-63
2021/10/21 06:24:27;;;;;;;3.15;1.98;;;16.90;96.30;;;;;;5073451;28;20086;-63
2021/10/21 06:26:53;;;;;;;2.15;1.40;;;17.00;96.20;;;;;;5079069;28;20047;-66
2021/10/21 06:29:19;;;;;;;2.08;1.40;;;17.00;96.30;;;;;;5076959;28;20024;-66
2021/10/21 06:31:49;;;;;;;2.58;1.33;;;17.00;95.90;;;;;;5072275;28;20029;-65
2021/10/21 06:34:14;;;;;;;3.85;1.23;;;17.10;95.90;;;;;;5069688;28;20029;-65
2021/10/21 06:36:40;;;;;;;2.03;1.27;;;17.10;95.70;;;;;;5070259;28;20082;-66
2021/10/21 06:39:05;;;;;;;2.53;1.30;;;17.10;95.50;;;;;;5071485;28;20020;-65
2021/10/21 06:41:31;;;;;;;2.78;1.10;;;17.10;95.40;;;;;;5087379;28;20020;-65
2021/10/21 06:43:57;;;;;;;3.10;1.60;;;17.10;95.30;;;;;;5076412;28;20027;-65
2021/10/21 06:46:23;;;;;;;4.55;1.30;;;17.20;95.10;;;;;;5076241;28;20029;-65
2021/10/21 06:48:49;;;;;;;5.93;1.52;;;17.20;95.10;;;;;;5075971;28;20032;-66
2021/10/21 06:51:14;;;;;;;2.95;1.33;;;17.30;94.70;;;;;;5070685;28;20028;-66
2021/10/21 06:53:40;;;;;;;2.60;1.20;;;17.30;94.60;;;;;;5073342;28;20385;-64
2021/10/21 06:56:05;;;;;;;3.63;1.30;;;17.30;94.30;;;;;;5081893;28;20032;-65
2021/10/21 06:58:33;;;;;;;2.00;1.27;;;17.30;94.10;;;;;;5072259;28;20028;-66
2021/10/21 07:00:58;;;;;;;3.28;1.30;;;17.40;94.00;;;;;;5078720;28;20057;-66
2021/10/21 07:03:24;;;;;;;2.60;1.20;;;17.40;93.80;;;;;;5081959;28;20052;-65
2021/10/21 07:05:52;;;;;;;2.97;1.40;;;17.40;93.60;;;;;;5072055;28;20507;-65
2021/10/21 07:08:18;;;;;;;4.50;1.30;;;17.40;93.30;;;;;;5073920;28;20099;-65
2021/10/21 07:10:44;;;;;;;2.08;1.20;;;17.40;93.30;;;;;;5073998;28;20396;-65
2021/10/21 07:13:12;;;;;;;5.80;1.55;;;17.40;93.20;;;;;;5076995;28;20032;-65
2021/10/21 07:15:37;;;;;;;2.58;1.10;;;17.50;93.00;;;;;;5072666;28;20035;-64
2021/10/21 07:18:03;;;;;;;2.78;1.30;;;17.40;92.90;;;;;;5084671;28;20020;-64
2021/10/21 07:20:30;;;;;;;2.65;1.50;;;17.40;92.80;;;;;;5075893;28;20502;-64
2021/10/21 07:22:55;;;;;;;1.92;1.20;;;17.40;92.70;;;;;;5081826;28;20380;-65
2021/10/21 07:25:23;;;;;;;4.93;1.48;;;17.40;92.20;;;;;;5079969;28;20021;-64
2021/10/21 07:27:48;;;;;;;4.70;1.25;;;17.30;91.60;;;;;;5080230;28;22352;-65
2021/10/21 07:30:14;;;;;;;3.50;1.70;;;17.30;91.10;;;;;;5075319;28;20141;-65
2021/10/21 07:32:41;;;;;;;6.95;1.65;;;17.20;90.90;;;;;;5083004;28;20056;-64
2021/10/21 07:35:08;;;;;;;8.43;2.25;;;17.20;90.50;;;;;;5083186;28;20044;-65
2021/10/21 07:37:33;;;;;;;3.60;1.30;;;17.10;90.20;;;;;;5081577;28;20020;-65
2021/10/21 07:39:59;;;;;;;4.88;1.17;;;17.10;89.50;;;;;;5082264;28;20396;-64
2021/10/21 07:42:25;;;;;;;2.45;1.10;;;17.10;89.80;;;;;;5079992;28;20024;-65
2021/10/21 07:44:50;;;;;;;3.80;1.50;;;17.10;89.30;;;;;;5076457;28;20031;-64
2021/10/21 07:47:16;;;;;;;5.25;1.33;;;17.10;88.60;;;;;;5078479;28;20036;-64
2021/10/21 07:49:43;;;;;;;4.90;1.60;;;17.10;88.00;;;;;;5079314;28;20020;-64
2021/10/21 07:52:09;;;;;;;5.15;1.50;;;17.00;87.90;;;;;;5081701;28;20078;-64
2021/10/21 07:54:34;;;;;;;2.97;1.42;;;17.00;87.10;;;;;;5073822;28;20075;-64
2021/10/21 07:57:01;;;;;;;5.93;1.15;;;17.10;86.90;;;;;;5072619;28;20430;-64
2021/10/21 07:59:28;;;;;;;3.22;1.55;;;17.00;86.40;;;;;;5074504;28;20040;-64
2021/10/21 08:01:59;;;;;;;4.63;1.42;;;17.00;86.40;;;;;;5084453;28;20024;-63
2021/10/21 08:04:29;;;;;;;4.30;1.25;;;17.10;86.30;;;;;;5072445;28;20061;-64
2021/10/21 08:06:56;;;;;;;3.30;1.42;;;17.00;85.90;;;;;;5078830;28;20028;-64
2021/10/21 08:09:23;;;;;;;3.33;1.17;;;17.00;85.10;;;;;;5073174;28;20064;-64
2021/10/21 08:11:51;;;;;;;6.82;1.50;;;17.00;85.10;;;;;;5078264;28;20102;-64
2021/10/21 08:14:17;;;;;;;2.88;1.05;;;17.10;85.10;;;;;;5073221;28;20039;-64
2021/10/21 08:16:43;;;;;;;7.05;1.10;;;17.10;84.40;;;;;;5075552;28;20426;-63
2021/10/21 08:19:09;;;;;;;4.90;1.77;;;17.10;84.60;;;;;;5076141;28;20025;-64
2021/10/21 08:21:35;;;;;;;8.05;1.52;;;17.10;83.90;;;;;;5084034;28;20020;-64
2021/10/21 08:24:02;;;;;;;5.30;2.22;;;17.10;83.50;;;;;;5092096;28;20032;-63
2021/10/21 08:26:27;;;;;;;6.28;2.10;;;17.20;83.50;;;;;;5079913;28;20028;-64
2021/10/21 08:28:53;;;;;;;4.15;1.23;;;17.20;83.90;;;;;;5087894;28;20432;-64
2021/10/21 08:31:18;;;;;;;6.53;1.80;;;17.30;83.40;;;;;;5072126;28;20169;-65
2021/10/21 08:33:45;;;;;;;2.30;1.25;;;17.30;82.80;;;;;;5072617;28;20078;-65
2021/10/21 08:36:14;;;;;;;3.47;1.60;;;17.40;82.60;;;;;;5072165;28;20107;-64
2021/10/21 08:38:40;;;;;;;1.92;0.98;;;17.40;82.20;;;;;;5072507;28;20103;-65
2021/10/21 08:41:07;;;;;;;7.15;1.40;;;17.50;82.20;;;;;;5076368;28;20127;-68
2021/10/21 08:43:34;;;;;;;5.15;1.05;;;17.50;80.80;;;;;;5085234;28;20480;-68
2021/10/21 08:46:00;;;;;;;15.40;1.55;;;17.50;80.60;;;;;;5090152;28;20099;-68
2021/10/21 08:48:28;;;;;;;6.55;0.93;;;17.50;80.60;;;;;;5078185;28;20651;-68
2021/10/21 08:50:55;;;;;;;6.03;1.00;;;17.50;79.70;;;;;;5073427;28;20464;-69
2021/10/21 08:53:20;;;;;;;6.57;1.15;;;17.60;79.40;;;;;;5076646;28;20048;-68
2021/10/21 08:55:50;;;;;;;7.95;1.50;;;17.60;79.70;;;;;;5071761;28;20415;-69
2021/10/21 08:58:16;;;;;;;3.60;1.10;;;17.60;79.40;;;;;;5072716;28;20023;-70
2021/10/21 09:00:41;;;;;;;3.05;1.10;;;17.70;79.30;;;;;;5075425;28;20593;-69
2021/10/21 09:03:14;;;;;;;5.53;2.03;;;17.70;79.10;;;;;;5080586;28;20026;-69
2021/10/21 09:05:51;;;;;;;4.50;1.45;;;17.80;78.80;;;;;;5070876;28;20025;-69
2021/10/21 09:08:20;;;;;;;5.28;1.52;;;17.80;78.70;;;;;;5079893;28;20089;-70
2021/10/21 09:10:54;;;;;;;9.80;1.65;;;17.80;78.20;;;;;;5079694;28;20064;-69
2021/10/21 09:13:31;;;;;;;5.60;1.88;;;17.80;78.00;;;;;;5078100;28;20120;-70
2021/10/21 09:15:59;;;;;;;8.52;1.40;;;17.80;78.00;;;;;;5072291;28;20115;-69
2021/10/21 09:18:27;;;;;;;5.85;1.45;;;17.90;77.90;;;;;;5070981;28;20507;-70
2021/10/21 09:20:53;;;;;;;3.88;1.10;;;17.80;77.80;;;;;;5072285;28;20032;-69
2021/10/21 09:23:25;;;;;;;6.68;1.48;;;17.80;77.50;;;;;;5078634;28;20115;-69
2021/10/21 09:25:52;;;;;;;3.42;1.20;;;17.80;77.60;;;;;;5078986;28;20052;-68
2021/10/21 09:28:26;;;;;;;3.53;1.50;;;17.80;77.80;;;;;;5078343;28;20085;-69
2021/10/21 09:30:56;;;;;;;4.03;1.75;;;17.70;78.10;;;;;;5082156;28;20076;-69
2021/10/21 09:33:23;;;;;;;4.45;1.20;;;17.70;77.50;;;;;;5076822;28;20045;-69
2021/10/21 09:35:54;;;;;;;6.05;1.38;;;17.80;77.80;;;;;;5071024;28;20527;-68
2021/10/21 09:38:24;;;;;;;3.35;1.48;;;17.80;77.60;;;;;;5088128;28;20126;-68
2021/10/21 09:40:50;;;;;;;3.58;1.20;;;17.80;77.80;;;;;;5079434;28;20072;-68
2021/10/21 09:43:27;;;;;;;7.03;1.10;;;17.80;77.40;;;;;;5080328;28;20016;-68
2021/10/21 09:45:53;;;;;;;5.50;1.40;;;17.80;77.20;;;;;;5081145;28;20081;-68
2021/10/21 09:48:20;;;;;;;5.90;1.55;;;17.80;77.00;;;;;;5074619;28;20024;-67
2021/10/21 09:50:46;;;;;;;3.47;1.10;;;17.80;76.70;;;;;;5075426;28;20126;-67
2021/10/21 09:53:22;;;;;;;5.05;1.20;;;17.80;76.70;;;;;;5069967;28;20094;-67
2021/10/21 09:56:00;;;;;;;6.78;1.15;;;17.80;76.60;;;;;;5079403;28;20072;-68
2021/10/21 09:58:41;;;;;;;3.85;1.10;;;17.80;76.60;;;;;;5078749;28;20081;-67
2021/10/21 10:01:15;;;;;;;5.47;1.30;;;17.80;76.80;;;;;;5080155;28;20055;-67
2021/10/21 10:03:45;;;;;;;5.45;1.35;;;17.80;76.70;;;;;;5084621;28;20032;-67
2021/10/21 10:06:14;;;;;;;6.53;1.00;;;17.80;76.40;;;;;;5079603;28;20116;-67
2021/10/21 10:08:40;;;;;;;6.80;1.33;;;17.80;76.00;;;;;;5071001;28;20104;-67
2021/10/21 10:11:11;;;;;;;2.20;0.85;;;17.80;76.60;;;;;;5072095;28;20064;-67
2021/10/21 10:13:39;;;;;;;5.32;1.13;;;17.80;76.70;;;;;;5071113;28;20027;-67
2021/10/21 10:16:07;;;;;;;10.82;1.73;;;17.70;76.30;;;;;;5070537;28;20033;-67
2021/10/21 10:18:33;;;;;;;11.77;1.35;;;17.60;76.10;;;;;;5071894;28;20025;-67
2021/10/21 10:21:06;;;;;;;5.93;1.20;;;17.60;76.00;;;;;;5077722;28;20068;-67
2021/10/21 10:23:33;;;;;;;3.90;1.17;;;17.60;76.20;;;;;;5091412;28;20119;-67
2021/10/21 10:25:59;;;;;;;7.93;1.88;;;17.60;76.70;;;;;;5089692;28;20032;-67
2021/10/21 10:28:25;;;;;;;8.43;1.23;;;17.70;77.10;;;;;;5092201;28;20040;-68
2021/10/21 10:30:56;;;;;;;4.18;1.25;;;17.70;76.70;;;;;;5072861;28;20533;-66
2021/10/21 10:33:42;;;;;;;4.95;1.75;;;17.70;76.70;;;;;;5071236;28;20045;-67
2021/10/21 10:36:29;;;;;;;6.05;1.00;;;17.70;76.90;;;;;;5082676;28;20523;-67
2021/10/21 10:39:00;;;;;;;5.93;1.20;;;17.60;77.60;;;;;;5075515;28;20029;-67
2021/10/21 10:41:54;;;;;;;8.30;1.83;;;17.60;78.00;;;;;;5075322;28;20035;-67
2021/10/21 10:44:34;;;;;;;7.95;1.48;;;17.60;78.30;;;;;;5074805;28;20031;-68
2021/10/21 10:47:01;;;;;;;4.43;1.27;;;17.60;78.50;;;;;;5075371;28;20031;-66
2021/10/21 10:49:39;;;;;;;3.85;1.38;;;17.60;78.40;;;;;;5075342;28;20028;-66
2021/10/21 10:52:05;;;;;;;3.42;1.42;;;17.60;78.60;;;;;;5074973;28;20024;-67
2021/10/21 10:54:39;;;;;;;6.22;1.20;;;17.60;78.70;;;;;;5073052;28;20040;-67
2021/10/21 10:57:06;;;;;;;;;;;17.60;79.70;;;;;;5075878;28;20104;-67
2021/10/21 10:59:33;;;;;;;7.15;1.10;;;17.50;80.50;;;;;;5074900;28;19950;-68
2021/10/21 11:02:28;;;;;;;5.95;1.13;;;17.40;82.90;;;;;;5090289;28;20020;-66
2021/10/21 11:04:54;;;;;;;4.20;1.00;;;17.20;85.30;;;;;;5094884;28;20024;-67
2021/10/21 11:07:27;;;;;;;2.47;0.90;;;16.90;87.60;;;;;;5074729;28;20811;-67
2021/10/21 11:10:13;;;;;;;2.28;1.02;;;16.80;89.10;;;;;;5074509;28;20063;-67
2021/10/21 11:12:38;;;;;;;5.05;1.10;;;16.70;90.00;;;;;;5073997;28;20380;-66
2021/10/21 11:15:29;;;;;;;2.05;0.75;;;16.60;90.60;;;;;;5073920;28;20035;-67
2021/10/21 11:17:56;;;;;;;3.47;0.70;;;16.40;90.10;;;;;;5074339;28;20107;-67
2021/10/21 11:20:27;;;;;;;2.65;0.93;;;16.30;90.20;;;;;;5076585;28;20035;-67
2021/10/21 11:22:54;;;;;;;0.77;0.55;;;16.10;90.10;;;;;;5094913;28;20020;-67
2021/10/21 11:25:29;;;;;;;1.90;0.98;;;16.00;89.80;;;;;;5090686;28;20067;-68
2021/10/21 11:27:55;;;;;;;1.63;0.82;;;15.80;89.30;;;;;;5097612;28;20027;-68
2021/10/21 11:30:26;;;;;;;1.02;0.60;;;15.70;89.40;;;;;;5098364;28;20039;-67
2021/10/21 11:32:54;;;;;;;1.15;0.70;;;15.70;89.70;;;;;;5077687;28;20043;-66
2021/10/21 11:35:22;;;;;;;2.10;0.65;;;15.60;90.10;;;;;;5072823;28;20041;-67
2021/10/21 11:37:57;;;;;;;0.50;0.50;;;15.50;90.20;;;;;;5076640;28;20040;-67
2021/10/21 11:40:31;;;;;;;1.35;0.80;;;15.40;90.40;;;;;;5076635;28;20028;-68
2021/10/21 11:43:08;;;;;;;2.13;0.63;;;15.30;90.60;;;;;;5073331;28;20040;-68
2021/10/21 11:45:36;;;;;;;1.25;0.82;;;15.20;90.70;;;;;;5084595;28;20029;-68
2021/10/21 11:48:04;;;;;;;1.88;0.60;;;15.20;91.20;;;;;;5074446;28;20032;-69
2021/10/21 11:50:34;;;;;;;1.50;0.70;;;15.10;91.30;;;;;;5080033;28;20443;-68
2021/10/21 11:53:01;;;;;;;0.85;0.57;;;15.00;91.10;;;;;;5080810;28;20047;-67
2021/10/21 11:55:27;;;;;;;1.15;0.52;;;15.00;91.00;;;;;;5071396;28;20131;-68
2021/10/21 11:58:07;;;;;;;1.00;0.80;;;14.90;91.00;;;;;;5080849;28;20020;-67
2021/10/21 12:00:33;;;;;;;0.93;0.75;;;14.90;91.00;;;;;;5073625;28;20380;-68
2021/10/21 12:03:00;;;;;;;2.72;1.00;;;15.00;90.90;;;;;;5077217;28;20082;-68
2021/10/21 12:05:30;;;;;;;3.42;1.05;;;14.90;90.70;;;;;;5085890;28;20137;-68
2021/10/21 12:07:57;;;;;;;1.55;0.77;;;15.00;90.50;;;;;;5076252;28;20119;-68
2021/10/21 12:10:33;;;;;;;3.67;0.98;;;15.00;90.30;;;;;;5074586;28;20032;-68
2021/10/21 12:13:00;;;;;;;1.83;1.00;;;15.10;90.20;;;;;;5072399;28;20035;-68
2021/10/21 12:15:29;;;;;;;1.63;0.90;;;15.00;90.20;;;;;;5075214;28;20391;-67
2021/10/21 12:17:55;;;;;;;2.33;1.17;;;15.10;90.10;;;;;;5073574;28;20122;-68
2021/10/21 12:20:42;;;;;;;4.18;1.02;;;15.10;90.20;;;;;;5085368;28;20119;-68
2021/10/21 12:23:35;;;;;;;4.38;1.40;;;15.20;90.10;;;;;;5079634;28;20089;-68
2021/10/21 12:26:07;;;;;;;2.88;0.98;;;15.20;89.50;;;;;;5078020;28;20051;-68
2021/10/21 12:28:45;;;;;;;5.78;1.10;;;15.20;89.00;;;;;;5071615;28;20027;-68
2021/10/21 12:31:19;;;;;;;5.07;1.50;;;15.30;89.00;;;;;;5082124;28;20036;-68
2021/10/21 12:33:59;;;;;;;3.08;1.05;;;15.20;88.60;;;;;;5089496;28;20438;-68
2021/10/21 12:36:32;;;;;;;4.22;1.15;;;15.10;88.50;;;;;;5077658;28;20039;-68
2021/10/21 12:39:07;;;;;;;3.22;0.95;;;15.20;88.60;;;;;;5076607;28;20376;-68
2021/10/21 12:41:56;;;;;;;3.22;0.98;;;15.20;88.30;;;;;;5080155;28;20029;-68
2021/10/21 12:44:24;;;;;;;1.80;1.05;;;15.20;88.30;;;;;;5071821;28;20499;-68
2021/10/21 12:47:15;;;;;;;3.83;1.33;;;15.20;88.00;;;;;;5079865;28;20043;-67
2021/10/21 12:50:06;;;;;;;3.63;1.20;;;15.20;87.90;;;;;;5077089;28;20578;-67